Time;durP1;ratioP1;P1;durP2;ratioP2;P2;SDS_P1;SDS_P2;PMS_P1;PMS_P2;Temp;Humidity;BMP_temperature;BMP_pressure;BME280_temperature;BME280_humidity;BME280_pressure;Samples;Min_cycle;Max_cycle;Signal;HPM_P1;HPM_P2
2023/07/11 00:00:49;;;;;;;;;;;25.60;90.40;;;;;;5096937;28;19904;-45
2023/07/11 00:03:14;;;;;;;;;;;25.50;90.40;;;;;;5096621;28;20350;-48
2023/07/11 00:05:40;;;;;;;;;;;25.60;90.50;;;;;;5096889;28;19947;-48
2023/07/11 00:08:06;;;;;;;;;;;25.60;90.40;;;;;;5096490;28;19904;-46
2023/07/11 00:10:31;;;;;;;;;;;25.60;90.50;;;;;;5096540;28;19959;-48
2023/07/11 00:12:57;;;;;;;;;;;25.60;90.50;;;;;;5096757;28;19903;-48
2023/07/11 00:15:23;;;;;;;;;;;25.60;90.50;;;;;;5096650;28;19908;-49
2023/07/11 00:17:49;;;;;;;;;;;25.60;90.50;;;;;;5078483;28;19908;-49
2023/07/11 00:20:15;;;;;;;;;;;25.50;90.50;;;;;;5096345;28;20379;-48
2023/07/11 00:22:41;;;;;;;;;;;25.60;90.50;;;;;;5096336;28;19904;-50
2023/07/11 00:25:08;;;;;;;;;;;25.60;90.60;;;;;;5096544;28;19949;-48
2023/07/11 00:27:33;;;;;;;;;;;25.60;90.60;;;;;;5096179;28;20350;-51
2023/07/11 00:29:59;;;;;;;;;;;25.60;90.60;;;;;;5078290;28;19954;-49
2023/07/11 00:32:24;;;;;;;;;;;25.60;90.60;;;;;;5096204;28;19904;-50
2023/07/11 00:34:50;;;;;;;;;;;25.60;90.60;;;;;;5095960;28;19914;-52
2023/07/11 00:37:15;;;;;;;;;;;25.60;90.60;;;;;;5078149;28;19959;-48
2023/07/11 00:39:42;;;;;;;;;;;25.60;90.60;;;;;;5096269;28;19919;-51
2023/07/11 00:42:08;;;;;;;;;;;25.60;90.60;;;;;;5096234;28;19999;-46
2023/07/11 00:44:51;;;;;;;;;;;25.60;90.60;;;;;;5096111;28;19916;-51
2023/07/11 00:47:17;;;;;;;;;;;25.50;90.60;;;;;;5095810;28;20228;-49
2023/07/11 00:49:43;;;;;;;;;;;25.60;90.60;;;;;;5096086;28;19918;-50
2023/07/11 00:52:09;;;;;;;;;;;25.60;90.60;;;;;;5095781;28;20339;-51
2023/07/11 00:54:36;;;;;;;;;;;25.60;90.60;;;;;;5096098;28;20358;-52
2023/07/11 00:57:04;;;;;;;;;;;25.60;90.70;;;;;;5095962;28;19919;-46
2023/07/11 00:59:29;;;;;;;;;;;25.60;90.70;;;;;;5095873;28;19904;-49
2023/07/11 01:02:01;;;;;;;;;;;25.60;90.70;;;;;;5095565;28;19904;-49
2023/07/11 01:04:26;;;;;;;;;;;25.60;90.70;;;;;;5095598;28;19904;-48
2023/07/11 01:06:52;;;;;;;;;;;25.60;90.70;;;;;;5095468;28;19999;-51
2023/07/11 01:09:17;;;;;;;;;;;25.60;90.70;;;;;;5095404;28;19904;-49
2023/07/11 01:11:55;;;;;;;;;;;25.60;90.70;;;;;;5095412;28;19904;-48
2023/07/11 01:14:22;;;;;;;;;;;25.60;90.70;;;;;;5095538;28;19908;-52
2023/07/11 01:16:48;;;;;;;;;;;25.60;90.70;;;;;;5095285;28;19908;-46
2023/07/11 01:19:13;;;;;;;;;;;25.60;90.70;;;;;;5077342;28;19904;-50
2023/07/11 01:21:39;;;;;;;;;;;25.60;90.70;;;;;;5095435;28;20436;-50
2023/07/11 01:24:04;;;;;;;;;;;25.60;90.70;;;;;;5095394;28;19911;-53
2023/07/11 01:26:30;;;;;;;;;;;25.60;90.70;;;;;;5095080;28;19993;-51
2023/07/11 01:28:55;;;;;;;;;;;25.60;90.70;;;;;;5095066;28;20003;-51
2023/07/11 01:31:21;;;;;;;;;;;25.60;90.70;;;;;;5095230;28;19915;-46
2023/07/11 01:33:46;;;;;;;;;;;25.60;90.70;;;;;;5076995;28;19908;-46
2023/07/11 01:36:12;;;;;;;;;;;25.60;90.70;;;;;;5095191;28;19914;-50
2023/07/11 01:38:38;;;;;;;;;;;25.60;90.70;;;;;;5095497;28;20392;-49
2023/07/11 01:41:03;;;;;;;;;;;25.60;90.70;;;;;;5094650;28;19904;-49
2023/07/11 01:43:29;;;;;;;;;;;25.60;90.70;;;;;;5095487;28;20365;-50
2023/07/11 01:45:54;;;;;;;;;;;25.60;90.70;;;;;;5095135;28;19950;-48
2023/07/11 01:48:20;;;;;;;;;;;25.50;90.70;;;;;;5094770;28;20002;-52
2023/07/11 01:50:45;;;;;;;;;;;25.60;91.00;;;;;;5094646;28;19904;-51
2023/07/11 01:53:11;;;;;;;;;;;25.60;90.70;;;;;;5076794;28;19912;-49
2023/07/11 01:55:36;;;;;;;;;;;25.60;90.70;;;;;;5094781;28;19908;-51
2023/07/11 01:58:02;;;;;;;;;;;25.50;90.70;;;;;;5094559;28;19908;-52
2023/07/11 02:00:27;;;;;;;;;;;25.60;90.70;;;;;;5094927;28;19904;-48
2023/07/11 02:02:53;;;;;;;;;;;25.60;90.70;;;;;;5076624;28;20240;-51
2023/07/11 02:05:19;;;;;;;;;;;25.60;90.70;;;;;;5094696;28;19951;-50
2023/07/11 02:07:45;;;;;;;;;;;25.60;90.70;;;;;;5094710;28;20261;-50
2023/07/11 02:10:11;;;;;;;;;;;25.50;90.70;;;;;;5094358;28;19999;-52
2023/07/11 02:12:36;;;;;;;;;;;25.60;90.70;;;;;;5094570;28;19950;-48
2023/07/11 02:15:02;;;;;;;;;;;25.60;90.70;;;;;;5094567;28;19958;-51
2023/07/11 02:17:27;;;;;;;;;;;25.60;90.70;;;;;;5094272;28;20354;-49
2023/07/11 02:19:53;;;;;;;;;;;25.60;90.70;;;;;;5094548;28;20009;-48
2023/07/11 02:22:18;;;;;;;;;;;25.60;90.70;;;;;;5094183;28;20361;-48
2023/07/11 02:24:43;;;;;;;;;;;25.60;90.80;;;;;;5094457;28;19905;-48
2023/07/11 02:27:09;;;;;;;;;;;25.60;90.70;;;;;;5094131;28;19904;-49
2023/07/11 02:29:34;;;;;;;;;;;25.60;90.70;;;;;;5076313;28;19912;-47
2023/07/11 02:32:00;;;;;;;;;;;25.50;90.70;;;;;;5094102;28;19991;-48
2023/07/11 02:34:26;;;;;;;;;;;25.60;90.80;;;;;;5094274;28;19908;-48
2023/07/11 02:36:51;;;;;;;;;;;25.60;90.80;;;;;;5094343;28;19919;-47
2023/07/11 02:39:17;;;;;;;;;;;25.50;90.70;;;;;;5094066;28;19939;-48
2023/07/11 02:41:42;;;;;;;;;;;25.60;90.80;;;;;;5094306;28;20351;-49
2023/07/11 02:44:08;;;;;;;;;;;25.50;90.80;;;;;;5094078;28;19904;-46
2023/07/11 02:46:33;;;;;;;;;;;25.50;90.80;;;;;;5093930;28;19908;-47
2023/07/11 02:48:59;;;;;;;;;;;25.50;90.80;;;;;;5093898;28;19905;-49
2023/07/11 02:51:24;;;;;;;;;;;25.60;90.80;;;;;;5093765;28;19904;-50
2023/07/11 02:53:50;;;;;;;;;;;25.50;90.80;;;;;;5097633;28;20347;-49
2023/07/11 02:56:17;;;;;;;;;;;25.60;90.80;;;;;;5098317;28;19920;-48
2023/07/11 02:58:44;;;;;;;;;;;25.50;91.00;;;;;;5097975;28;19904;-48
2023/07/11 03:01:09;;;;;;;;;;;25.50;90.80;;;;;;5098144;28;19904;-49
2023/07/11 03:03:34;;;;;;;;;;;25.50;90.80;;;;;;5097826;28;19911;-47
2023/07/11 03:06:00;;;;;;;;;;;25.50;90.80;;;;;;5098008;28;19910;-46
2023/07/11 03:08:26;;;;;;;;;;;25.50;90.70;;;;;;5098047;28;19908;-47
2023/07/11 03:10:51;;;;;;;;;;;25.50;90.80;;;;;;5097560;28;19949;-50
2023/07/11 03:13:18;;;;;;;;;;;25.50;90.80;;;;;;5097524;28;19963;-52
2023/07/11 03:15:43;;;;;;;;;;;25.50;90.80;;;;;;5097781;28;19915;-52
2023/07/11 03:18:10;;;;;;;;;;;25.50;90.80;;;;;;5079665;28;19912;-48
2023/07/11 03:20:36;;;;;;;;;;;25.50;90.80;;;;;;5097528;28;19904;-50
2023/07/11 03:23:02;;;;;;;;;;;25.50;90.80;;;;;;5079685;28;20010;-46
2023/07/11 03:25:27;;;;;;;;;;;25.50;90.80;;;;;;5097510;28;20362;-49
2023/07/11 03:27:53;;;;;;;;;;;25.50;90.80;;;;;;5097376;28;19905;-48
2023/07/11 03:30:18;;;;;;;;;;;25.50;90.80;;;;;;5097648;28;20293;-50
2023/07/11 03:32:44;;;;;;;;;;;25.50;90.80;;;;;;5097179;28;19904;-48
2023/07/11 03:35:09;;;;;;;;;;;25.50;90.80;;;;;;5097090;28;20018;-47
2023/07/11 03:37:34;;;;;;;;;;;25.50;90.80;;;;;;5097469;28;19930;-52
2023/07/11 03:40:00;;;;;;;;;;;25.50;90.80;;;;;;5097480;28;20346;-51
2023/07/11 03:42:26;;;;;;;;;;;25.50;90.80;;;;;;5079177;28;19904;-46
2023/07/11 03:44:51;;;;;;;;;;;25.50;90.80;;;;;;5096662;28;19919;-52
2023/07/11 03:47:17;;;;;;;;;;;25.50;90.80;;;;;;5095708;28;19904;-50
2023/07/11 03:49:42;;;;;;;;;;;25.50;90.80;;;;;;5095836;28;19904;-51
2023/07/11 03:52:08;;;;;;;;;;;25.50;90.80;;;;;;5095687;28;19904;-47
2023/07/11 03:54:33;;;;;;;;;;;25.60;90.90;;;;;;5095661;28;19963;-49
2023/07/11 03:56:59;;;;;;;;;;;25.50;90.90;;;;;;5095531;28;20366;-49
2023/07/11 03:59:24;;;;;;;;;;;25.50;90.80;;;;;;5077750;28;19957;-51
2023/07/11 04:01:49;;;;;;;;;;;25.50;90.90;;;;;;5095784;28;20262;-48
2023/07/11 04:04:15;;;;;;;;;;;25.50;90.80;;;;;;5095171;28;19904;-47
2023/07/11 04:06:41;;;;;;;;;;;25.50;90.80;;;;;;5095435;28;19907;-50
2023/07/11 04:09:06;;;;;;;;;;;25.50;90.80;;;;;;5077646;28;19905;-49
2023/07/11 04:11:32;;;;;;;;;;;25.50;90.80;;;;;;5095653;28;19904;-49
2023/07/11 04:13:57;;;;;;;;;;;25.60;90.90;;;;;;5095340;28;19915;-51
2023/07/11 04:16:23;;;;;;;;;;;25.60;90.90;;;;;;5095391;28;19908;-50
2023/07/11 04:18:49;;;;;;;;;;;25.60;90.90;;;;;;5095258;28;20412;-52
2023/07/11 04:21:14;;;;;;;;;;;25.60;90.90;;;;;;5095124;28;19904;-51
2023/07/11 04:23:40;;;;;;;;;;;25.60;90.80;;;;;;5094962;28;20231;-48
2023/07/11 04:26:05;;;;;;;;;;;25.60;90.80;;;;;;5095405;28;20202;-52
2023/07/11 04:28:31;;;;;;;;;;;25.60;90.70;;;;;;5094880;28;19904;-50
2023/07/11 04:30:56;;;;;;;;;;;25.60;90.60;;;;;;5095174;28;19931;-48
2023/07/11 04:33:22;;;;;;;;;;;25.60;90.50;;;;;;5095237;28;20010;-51
2023/07/11 04:35:48;;;;;;;;;;;25.60;90.40;;;;;;5095198;28;20003;-48
2023/07/11 04:38:13;;;;;;;;;;;25.60;90.40;;;;;;5094854;28;19983;-50
2023/07/11 04:40:39;;;;;;;;;;;25.60;90.40;;;;;;5094983;28;20325;-48
2023/07/11 04:43:05;;;;;;;;;;;25.60;90.30;;;;;;5094941;28;19942;-51
2023/07/11 04:45:30;;;;;;;;;;;25.60;90.30;;;;;;5032486;28;1762987;-51
2023/07/11 04:47:56;;;;;;;;;;;25.60;90.40;;;;;;5095595;28;20263;-51
2023/07/11 04:50:21;;;;;;;;;;;25.60;90.40;;;;;;5095910;28;19960;-50
2023/07/11 04:52:47;;;;;;;;;;;25.60;90.40;;;;;;5096196;28;19970;-51
2023/07/11 04:55:13;;;;;;;;;;;25.60;90.40;;;;;;5095706;28;19950;-48
2023/07/11 04:57:38;;;;;;;;;;;25.60;90.40;;;;;;5095693;28;20008;-48
2023/07/11 05:00:05;;;;;;;;;;;25.60;90.30;;;;;;5095596;28;19947;-50
2023/07/11 05:02:31;;;;;;;;;;;25.60;90.40;;;;;;5095262;28;20255;-49
2023/07/11 05:04:56;;;;;;;;;;;25.60;90.40;;;;;;5095631;28;19908;-50
2023/07/11 05:07:22;;;;;;;;;;;25.60;90.40;;;;;;5095157;28;19955;-52
2023/07/11 05:09:47;;;;;;;;;;;25.60;90.30;;;;;;5096698;28;19951;-50
2023/07/11 05:12:14;;;;;;;;;;;25.60;90.40;;;;;;5093034;28;19908;-50
2023/07/11 05:14:39;;;;;;;;;;;25.60;90.60;;;;;;5094231;28;19955;-48
2023/07/11 05:17:05;;;;;;;;;;;25.60;90.40;;;;;;5095080;28;19966;-47
2023/07/11 05:19:30;;;;;;;;;;;25.60;90.40;;;;;;5094851;28;19911;-48
2023/07/11 05:21:56;;;;;;;;;;;25.60;90.40;;;;;;5095043;28;19959;-48
2023/07/11 05:24:21;;;;;;;;;;;25.60;90.40;;;;;;5095739;28;19912;-47
2023/07/11 05:26:47;;;;;;;;;;;25.60;90.40;;;;;;5094871;28;19995;-52
2023/07/11 05:29:12;;;;;;;;;;;25.60;90.40;;;;;;5093851;28;20352;-47
2023/07/11 05:31:37;;;;;;;;;;;25.60;90.40;;;;;;5095013;28;19951;-49
2023/07/11 05:34:03;;;;;;;;;;;25.60;90.40;;;;;;5095967;28;19908;-50
2023/07/11 05:36:32;;;;;;;;;;;25.60;90.40;;;;;;5112811;28;19934;-51
2023/07/11 05:39:02;;;;;;;;;;;25.70;90.50;;;;;;5112904;28;19903;-48
2023/07/11 05:41:27;;;;;;;;;;;25.60;90.40;;;;;;5112687;28;19993;-49
2023/07/11 05:43:53;;;;;;;;;;;25.70;90.20;;;;;;5113092;28;19918;-50
2023/07/11 05:46:19;;;;;;;;;;;25.70;90.30;;;;;;5112535;28;20014;-47
2023/07/11 05:48:44;;;;;;;;;;;25.70;90.60;;;;;;5112734;28;19998;-48
2023/07/11 05:51:12;;;;;;;;;;;25.70;90.50;;;;;;5112429;28;20359;-48
2023/07/11 05:53:37;;;;;;;;;;;25.70;90.50;;;;;;5112943;28;19926;-52
2023/07/11 05:56:03;;;;;;;;;;;25.70;90.70;;;;;;5114801;28;20350;-46
2023/07/11 05:58:30;;;;;;;;;;;25.70;90.50;;;;;;5114658;28;19958;-47
2023/07/11 06:00:56;;;;;;;;;;;25.70;90.50;;;;;;5114096;28;20273;-47
2023/07/11 06:03:22;;;;;;;;;;;25.60;88.40;;;;;;5114389;28;19914;-44
2023/07/11 06:05:48;;;;;;;;;;;25.60;87.90;;;;;;5114342;28;19911;-49
2023/07/11 06:08:13;;;;;;;;;;;25.50;87.20;;;;;;5114468;28;19908;-49
2023/07/11 06:10:40;;;;;;;;;;;25.50;86.90;;;;;;5114483;28;20003;-49
2023/07/11 06:13:06;;;;;;;;;;;25.50;86.70;;;;;;5114751;28;19911;-51
2023/07/11 06:15:31;;;;;;;;;;;25.50;86.70;;;;;;5111643;28;19912;-51
2023/07/11 06:17:57;;;;;;;;;;;25.50;87.00;;;;;;5096755;28;19920;-46
2023/07/11 06:20:23;;;;;;;;;;;25.50;87.40;;;;;;5079093;28;19998;-50
2023/07/11 06:22:48;;;;;;;;;;;25.50;88.00;;;;;;5093877;28;19912;-51
2023/07/11 06:25:14;;;;;;;;;;;25.60;89.10;;;;;;5103612;28;19915;-47
2023/07/11 06:27:39;;;;;;;;;;;25.50;89.60;;;;;;5110932;28;19957;-49
2023/07/11 06:30:05;;;;;;;;;;;25.60;89.90;;;;;;5106199;28;20274;-49
2023/07/11 06:32:30;;;;;;;;;;;25.60;90.00;;;;;;5113636;28;20002;-50
2023/07/11 06:34:57;;;;;;;;;;;25.60;89.90;;;;;;5113503;28;19916;-51
2023/07/11 06:37:22;;;;;;;;;;;25.60;89.80;;;;;;5114417;28;19915;-51
2023/07/11 06:39:47;;;;;;;;;;;25.60;90.00;;;;;;5113989;28;19908;-52
2023/07/11 06:42:13;;;;;;;;;;;25.60;90.10;;;;;;5095816;28;19951;-50
2023/07/11 06:44:38;;;;;;;;;;;25.60;90.10;;;;;;5113634;28;19997;-48
2023/07/11 06:47:04;;;;;;;;;;;25.60;90.20;;;;;;5114007;28;20286;-51
2023/07/11 06:49:30;;;;;;;;;;;25.60;90.20;;;;;;5113620;28;19945;-48
2023/07/11 06:51:55;;;;;;;;;;;25.60;90.20;;;;;;5113760;28;19962;-48
2023/07/11 06:54:20;;;;;;;;;;;25.60;90.30;;;;;;5113580;28;19912;-51
2023/07/11 06:56:46;;;;;;;;;;;25.60;90.30;;;;;;5113969;28;19912;-48
2023/07/11 06:59:12;;;;;;;;;;;25.60;90.30;;;;;;5113973;28;19964;-51
2023/07/11 07:01:37;;;;;;;;;;;25.60;90.30;;;;;;5113841;28;19908;-49
2023/07/11 07:04:03;;;;;;;;;;;25.60;90.30;;;;;;5113912;28;19965;-47
2023/07/11 07:06:28;;;;;;;;;;;25.60;90.30;;;;;;5113610;28;19991;-49
2023/07/11 07:08:54;;;;;;;;;;;25.70;90.30;;;;;;5113988;28;20266;-51
2023/07/11 07:11:19;;;;;;;;;;;25.60;90.30;;;;;;5113556;28;19953;-51
2023/07/11 07:13:45;;;;;;;;;;;25.60;90.30;;;;;;5113769;28;20331;-47
2023/07/11 07:16:10;;;;;;;;;;;25.70;90.30;;;;;;5114070;28;19993;-50
2023/07/11 07:18:38;;;;;;;;;;;25.70;90.30;;;;;;5113604;28;19915;-50
2023/07/11 07:21:03;;;;;;;;;;;25.70;90.30;;;;;;5113547;28;19908;-49
2023/07/11 07:23:29;;;;;;;;;;;25.70;90.30;;;;;;5113801;28;19937;-50
2023/07/11 07:25:56;;;;;;;;;;;25.70;90.30;;;;;;5113852;28;19914;-50
2023/07/11 07:28:22;;;;;;;;;;;25.70;90.20;;;;;;5113832;28;19918;-50
2023/07/11 07:30:48;;;;;;;;;;;25.70;90.20;;;;;;5113779;28;19908;-50
2023/07/11 07:33:14;;;;;;;;;;;25.70;90.20;;;;;;5113885;28;19908;-46
2023/07/11 07:35:40;;;;;;;;;;;25.70;90.20;;;;;;5113598;28;19912;-50
2023/07/11 07:38:06;;;;;;;;;;;25.70;90.20;;;;;;5114635;28;20350;-49
2023/07/11 07:40:31;;;;;;;;;;;25.70;90.20;;;;;;5117259;28;19965;-47
2023/07/11 07:42:57;;;;;;;;;;;25.70;90.20;;;;;;5117533;28;19914;-49
2023/07/11 07:45:22;;;;;;;;;;;25.70;90.20;;;;;;5117337;28;19972;-49
2023/07/11 07:47:48;;;;;;;;;;;25.70;90.20;;;;;;5117144;28;19908;-48
2023/07/11 07:50:13;;;;;;;;;;;25.70;90.10;;;;;;5099056;28;19998;-46
2023/07/11 07:52:40;;;;;;;;;;;25.70;90.10;;;;;;5117373;28;19908;-49
2023/07/11 07:55:06;;;;;;;;;;;25.70;90.10;;;;;;5116850;28;19912;-50
2023/07/11 07:57:31;;;;;;;;;;;25.70;90.10;;;;;;5117114;28;19987;-46
2023/07/11 07:59:57;;;;;;;;;;;25.70;90.20;;;;;;5116584;28;19969;-50
2023/07/11 08:02:22;;;;;;;;;;;25.70;90.20;;;;;;5116663;28;19908;-50
2023/07/11 08:04:48;;;;;;;;;;;25.70;90.20;;;;;;5117020;28;19916;-51
2023/07/11 08:07:14;;;;;;;;;;;25.70;90.20;;;;;;5116955;28;19916;-50
2023/07/11 08:09:40;;;;;;;;;;;25.70;90.20;;;;;;5116610;28;19961;-48
2023/07/11 08:12:06;;;;;;;;;;;25.70;90.20;;;;;;5116705;28;20006;-51
2023/07/11 08:14:36;;;;;;;;;;;25.70;90.20;;;;;;5116607;28;19923;-48
2023/07/11 08:17:02;;;;;;;;;;;25.70;90.20;;;;;;5116895;28;20012;-53
2023/07/11 08:19:27;;;;;;;;;;;25.70;90.20;;;;;;5117224;28;20307;-49
2023/07/11 08:21:53;;;;;;;;;;;25.70;90.20;;;;;;5098367;28;19930;-47
2023/07/11 08:24:18;;;;;;;;;;;25.70;90.20;;;;;;5116800;28;20007;-52
2023/07/11 08:26:44;;;;;;;;;;;25.70;90.20;;;;;;5116680;28;19908;-48
2023/07/11 08:29:09;;;;;;;;;;;25.70;90.20;;;;;;5116108;28;20006;-51
2023/07/11 08:31:34;;;;;;;;;;;25.70;90.20;;;;;;5116170;28;20363;-47
2023/07/11 08:34:00;;;;;;;;;;;25.70;90.20;;;;;;5116210;28;20007;-49
2023/07/11 08:36:25;;;;;;;;;;;25.70;90.20;;;;;;5116010;28;20381;-50
2023/07/11 08:38:51;;;;;;;;;;;25.70;90.20;;;;;;5116403;28;19911;-49
2023/07/11 08:41:22;;;;;;;;;;;25.70;90.20;;;;;;5115932;28;19907;-52
2023/07/11 08:43:48;;;;;;;;;;;25.70;90.20;;;;;;5097686;28;19953;-51
2023/07/11 08:46:15;;;;;;;;;;;25.70;90.20;;;;;;5116454;28;19923;-51
2023/07/11 08:48:48;;;;;;;;;;;25.70;90.20;;;;;;5116244;28;20078;-50
2023/07/11 08:51:23;;;;;;;;;;;25.70;90.20;;;;;;5114707;28;20419;-50
2023/07/11 08:54:04;;;;;;;;;;;25.70;90.20;;;;;;5116352;28;20357;-49
2023/07/11 08:56:36;;;;;;;;;;;25.70;90.20;;;;;;5116101;28;19937;-49
2023/07/11 08:59:05;;;;;;;;;;;25.70;90.20;;;;;;5116001;28;20033;-48
2023/07/11 09:01:41;;;;;;;;;;;25.70;90.20;;;;;;5115994;28;19915;-47
2023/07/11 09:04:10;;;;;;;;;;;25.70;90.20;;;;;;5116044;28;19915;-52
2023/07/11 09:06:38;;;;;;;;;;;25.70;90.20;;;;;;5115635;28;19908;-48
2023/07/11 09:09:04;;;;;;;;;;;25.70;90.20;;;;;;5115356;28;20273;-53
2023/07/11 09:11:36;;;;;;;;;;;25.70;90.20;;;;;;5097106;28;19998;-50
2023/07/11 09:14:01;;;;;;;;;;;25.70;90.20;;;;;;5115541;28;19907;-51
2023/07/11 09:16:26;;;;;;;;;;;25.70;90.20;;;;;;5115423;28;19919;-52
2023/07/11 09:19:00;;;;;;;;;;;25.70;90.20;;;;;;5115563;28;19912;-47
2023/07/11 09:21:37;;;;;;;;;;;25.70;90.20;;;;;;5115596;28;19953;-49
2023/07/11 09:24:16;;;;;;;;;;;25.70;90.20;;;;;;5115255;28;20350;-49
2023/07/11 09:26:47;;;;;;;;;;;25.70;90.20;;;;;;5115296;28;19912;-50
2023/07/11 09:29:13;;;;;;;;;;;25.70;90.20;;;;;;5115463;28;19937;-46
2023/07/11 09:31:41;;;;;;;;;;;25.70;90.20;;;;;;5115315;28;19908;-48
2023/07/11 09:34:42;;;;;;;;;;;25.70;90.20;;;;;;5115092;28;19920;-48
2023/07/11 09:37:19;;;;;;;;;;;25.70;90.20;;;;;;5012619;28;19977;-46
2023/07/11 09:39:58;;;;;;;;;;;25.70;90.20;;;;;;5102132;28;19923;-46
2023/07/11 09:42:38;;;;;;;;;;;25.70;90.20;;;;;;5115242;28;19976;-48
2023/07/11 09:45:12;;;;;;;;;;;25.70;90.20;;;;;;5114934;28;19926;-52
2023/07/11 09:47:38;;;;;;;;;;;25.70;90.20;;;;;;5115378;28;20034;-50
2023/07/11 09:50:11;;;;;;;;;;;25.70;90.20;;;;;;5096406;28;19916;-50
2023/07/11 09:52:38;;;;;;;;;;;25.70;90.20;;;;;;5114885;28;20385;-48
2023/07/11 09:55:04;;;;;;;;;;;25.70;90.20;;;;;;5114635;28;19912;-46
2023/07/11 09:57:29;;;;;;;;;;;25.70;90.20;;;;;;5115061;28;19977;-49
2023/07/11 09:59:59;;;;;;;;;;;25.70;90.20;;;;;;5115113;28;19908;-50
2023/07/11 10:02:25;;;;;;;;;;;25.70;90.10;;;;;;5096559;28;20305;-47
2023/07/11 10:04:54;;;;;;;;;;;25.70;90.10;;;;;;5114433;28;19908;-47
2023/07/11 10:07:21;;;;;;;;;;;25.70;90.10;;;;;;5114332;28;19908;-49
2023/07/11 10:09:48;;;;;;;;;;;25.70;90.20;;;;;;5114687;28;19914;-51
2023/07/11 10:12:24;;;;;;;;;;;25.70;90.20;;;;;;5114624;28;19953;-50
2023/07/11 10:14:56;;;;;;;;;;;25.70;90.20;;;;;;5096163;28;19918;-48
2023/07/11 10:17:30;;;;;;;;;;;25.70;90.20;;;;;;5114643;28;19968;-46
2023/07/11 10:19:57;;;;;;;;;;;25.70;90.20;;;;;;5114519;28;20274;-49
2023/07/11 10:22:26;;;;;;;;;;;25.70;90.20;;;;;;5114259;28;20435;-51
2023/07/11 10:24:59;;;;;;;;;;;25.70;90.20;;;;;;5114245;28;20307;-49
2023/07/11 10:27:29;;;;;;;;;;;25.70;90.20;;;;;;5114400;28;19908;-45
2023/07/11 10:29:56;;;;;;;;;;;25.70;90.20;;;;;;5114345;28;19965;-52
2023/07/11 10:32:30;;;;;;;;;;;25.70;90.20;;;;;;5114353;28;19916;-49
2023/07/11 10:34:57;;;;;;;;;;;25.70;90.20;;;;;;5114334;28;20010;-50
2023/07/11 10:37:22;;;;;;;;;;;25.70;90.20;;;;;;5113923;28;19912;-51
2023/07/11 10:39:49;;;;;;;;;;;25.70;90.20;;;;;;5114089;28;19907;-50
2023/07/11 10:42:38;;;;;;;;;;;25.70;90.30;;;;;;5113784;28;20422;-49
2023/07/11 10:45:07;;;;;;;;;;;25.70;90.30;;;;;;5113795;28;20010;-51
2023/07/11 10:47:35;;;;;;;;;;;25.80;90.30;;;;;;5114040;28;19911;-47
2023/07/11 10:50:06;;;;;;;;;;;25.70;90.30;;;;;;5114121;28;19942;-51
2023/07/11 10:52:35;;;;;;;;;;;25.70;90.30;;;;;;5114256;28;20273;-48
2023/07/11 10:55:14;;;;;;;;;;;25.70;90.30;;;;;;5113802;28;20343;-49
2023/07/11 10:57:51;;;;;;;;;;;25.70;90.30;;;;;;5113986;28;19918;-51
2023/07/11 11:00:18;;;;;;;;;;;25.70;90.30;;;;;;5114130;28;19908;-47
2023/07/11 11:02:47;;;;;;;;;;;25.70;90.30;;;;;;5114010;28;19908;-47
2023/07/11 11:05:31;;;;;;;;;;;25.80;90.30;;;;;;5114184;28;19912;-50
2023/07/11 11:08:06;;;;;;;;;;;25.70;90.30;;;;;;5113673;28;19912;-49
2023/07/11 11:10:31;;;;;;;;;;;25.70;90.30;;;;;;5113808;28;19911;-50
2023/07/11 11:13:06;;;;;;;;;;;25.70;90.30;;;;;;5096256;28;19956;-50
2023/07/11 11:15:37;;;;;;;;;;;25.70;90.30;;;;;;5117599;28;19955;-50
2023/07/11 11:18:04;;;;;;;;;;;25.70;90.20;;;;;;5099487;28;19911;-48
2023/07/11 11:20:30;;;;;;;;;;;25.70;90.20;;;;;;5117912;28;19908;-48
2023/07/11 11:23:01;;;;;;;;;;;25.70;90.20;;;;;;5117840;28;19960;-52
2023/07/11 11:25:33;;;;;;;;;;;25.70;90.20;;;;;;5117581;28;19914;-49
2023/07/11 11:27:58;;;;;;;;;;;25.70;90.20;;;;;;5117400;28;19942;-49
2023/07/11 11:30:28;;;;;;;;;;;25.70;90.20;;;;;;5099257;28;19955;-47
2023/07/11 11:33:04;;;;;;;;;;;25.70;90.20;;;;;;5117553;28;19939;-45
2023/07/11 11:35:37;;;;;;;;;;;25.70;90.20;;;;;;5116874;28;20266;-49
2023/07/11 11:38:21;;;;;;;;;;;25.70;90.20;;;;;;5117725;28;20010;-48
2023/07/11 11:40:49;;;;;;;;;;;25.70;90.20;;;;;;5117232;28;19908;-49
2023/07/11 11:43:15;;;;;;;;;;;25.70;90.20;;;;;;5117214;28;19908;-48
2023/07/11 11:45:42;;;;;;;;;;;25.70;90.20;;;;;;5117239;28;19928;-47
2023/07/11 11:48:14;;;;;;;;;;;25.70;90.20;;;;;;5117271;28;19908;-47
2023/07/11 11:50:41;;;;;;;;;;;25.70;90.10;;;;;;5117077;28;19914;-50
2023/07/11 11:53:22;;;;;;;;;;;25.70;90.10;;;;;;5098951;28;19997;-50
2023/07/11 11:55:58;;;;;;;;;;;25.70;90.10;;;;;;5117061;28;19912;-52
2023/07/11 11:58:26;;;;;;;;;;;25.70;90.10;;;;;;5098942;28;19916;-50
2023/07/11 12:00:54;;;;;;;;;;;25.70;90.10;;;;;;5098864;28;19907;-50
2023/07/11 12:03:23;;;;;;;;;;;25.70;90.10;;;;;;5117163;28;20251;-49
2023/07/11 12:05:49;;;;;;;;;;;25.70;90.10;;;;;;5116881;28;19907;-49
2023/07/11 12:08:17;;;;;;;;;;;25.70;90.10;;;;;;5116790;28;19915;-48
2023/07/11 12:11:00;;;;;;;;;;;25.70;90.10;;;;;;5116873;28;19912;-49
2023/07/11 12:13:27;;;;;;;;;;;25.70;90.10;;;;;;5117166;28;19930;-47
2023/07/11 12:15:53;;;;;;;;;;;25.70;90.20;;;;;;5116777;28;19930;-51
2023/07/11 12:18:24;;;;;;;;;;;25.70;90.20;;;;;;5116308;28;19912;-49
2023/07/11 12:21:08;;;;;;;;;;;25.70;90.20;;;;;;5116705;28;19960;-52
2023/07/11 12:23:34;;;;;;;;;;;25.80;90.20;;;;;;5116429;28;19908;-50
2023/07/11 12:26:15;;;;;;;;;;;25.70;90.20;;;;;;5116177;28;19907;-52
2023/07/11 12:28:41;;;;;;;;;;;25.70;90.20;;;;;;5116561;28;20404;-49
2023/07/11 12:31:17;;;;;;;;;;;25.70;90.20;;;;;;5116082;28;19907;-49
2023/07/11 12:33:45;;;;;;;;;;;25.70;90.20;;;;;;5116473;28;20327;-49
2023/07/11 12:36:23;;;;;;;;;;;25.70;90.20;;;;;;5116504;28;19944;-47
2023/07/11 12:38:54;;;;;;;;;;;25.70;90.20;;;;;;5116361;28;19911;-50
2023/07/11 12:41:38;;;;;;;;;;;25.80;90.20;;;;;;5115943;28;19912;-49
2023/07/11 12:44:05;;;;;;;;;;;25.70;90.20;;;;;;5115840;28;20399;-49
2023/07/11 12:46:40;;;;;;;;;;;25.70;90.20;;;;;;5116493;28;20219;-52
2023/07/11 12:49:12;;;;;;;;;;;25.70;90.20;;;;;;5116213;28;20061;-47
2023/07/11 12:51:38;;;;;;;;;;;25.70;90.20;;;;;;5115786;28;19908;-47
2023/07/11 12:54:09;;;;;;;;;;;25.70;90.20;;;;;;5116052;28;20266;-51
2023/07/11 12:56:35;;;;;;;;;;;25.70;90.20;;;;;;5115758;28;20015;-51
2023/07/11 12:59:01;;;;;;;;;;;25.70;90.20;;;;;;5115651;28;19908;-51
2023/07/11 13:01:30;;;;;;;;;;;25.70;90.20;;;;;;5115750;28;19912;-49
2023/07/11 13:03:55;;;;;;;;;;;25.80;90.20;;;;;;5115593;28;20223;-50
2023/07/11 13:06:26;;;;;;;;;;;25.80;90.20;;;;;;5115728;28;19908;-50
2023/07/11 13:08:52;;;;;;;;;;;25.70;90.20;;;;;;5115834;28;19918;-51
2023/07/11 13:11:23;;;;;;;;;;;25.70;90.20;;;;;;5115705;28;19908;-48
2023/07/11 13:13:49;;;;;;;;;;;25.70;90.20;;;;;;5115953;28;19930;-51
2023/07/11 13:16:15;;;;;;;;;;;25.70;90.20;;;;;;5114931;28;19963;-50
2023/07/11 13:18:44;;;;;;;;;;;25.80;90.20;;;;;;5115811;28;19991;-47
2023/07/11 13:21:10;;;;;;;;;;;25.70;90.20;;;;;;5115670;28;20397;-49
2023/07/11 13:23:37;;;;;;;;;;;25.80;90.20;;;;;;5115235;28;19908;-50
2023/07/11 13:26:07;;;;;;;;;;;25.70;90.20;;;;;;5115210;28;19955;-48
2023/07/11 13:28:37;;;;;;;;;;;25.80;90.20;;;;;;5096899;28;19919;-47
2023/07/11 13:31:04;;;;;;;;;;;25.80;90.20;;;;;;5114942;28;19911;-47
2023/07/11 13:33:31;;;;;;;;;;;25.70;90.20;;;;;;5115288;28;19919;-47
2023/07/11 13:36:03;;;;;;;;;;;25.80;90.20;;;;;;5114327;28;19915;-51
2023/07/11 13:38:37;;;;;;;;;;;25.80;90.30;;;;;;5115283;28;19912;-51
2023/07/11 13:41:03;;;;;;;;;;;25.70;90.20;;;;;;5115147;28;20266;-50
2023/07/11 13:43:30;;;;;;;;;;;25.70;90.20;;;;;;5114570;28;19908;-48
2023/07/11 13:45:57;;;;;;;;;;;25.70;90.20;;;;;;5114587;28;19927;-52
2023/07/11 13:48:30;;;;;;;;;;;25.80;90.30;;;;;;5114598;28;19999;-52
2023/07/11 13:51:04;;;;;;;;;;;25.80;90.20;;;;;;5114614;28;19908;-52
2023/07/11 13:53:34;;;;;;;;;;;25.80;90.30;;;;;;5114688;28;19962;-51
2023/07/11 13:56:00;;;;;;;;;;;25.80;90.30;;;;;;5096365;28;20319;-50
2023/07/11 13:58:25;;;;;;;;;;;25.80;90.30;;;;;;5114675;28;19912;-49
2023/07/11 14:00:51;;;;;;;;;;;25.80;90.30;;;;;;5114439;28;19908;-48
2023/07/11 14:03:18;;;;;;;;;;;25.80;90.30;;;;;;5114360;28;19953;-52
2023/07/11 14:05:51;;;;;;;;;;;25.80;90.30;;;;;;5114272;28;19919;-47
2023/07/11 14:08:19;;;;;;;;;;;25.80;90.50;;;;;;5114443;28;19915;-49
2023/07/11 14:10:45;;;;;;;;;;;25.80;90.50;;;;;;5113982;28;20339;-49
2023/07/11 14:13:19;;;;;;;;;;;25.80;90.30;;;;;;5113912;28;20256;-49
2023/07/11 14:15:44;;;;;;;;;;;25.80;90.30;;;;;;5114222;28;19997;-50
2023/07/11 14:18:11;;;;;;;;;;;25.80;90.30;;;;;;5114589;28;19981;-49